Time;durP1;ratioP1;P1;durP2;ratioP2;P2;SDS_P1;SDS_P2;PMS_P1;PMS_P2;Temp;Humidity;BMP_temperature;BMP_pressure;BME280_temperature;BME280_humidity;BME280_pressure;Samples;Min_cycle;Max_cycle;Signal;HPM_P1;HPM_P2
2024/03/31 00:00:19;;;;;;;;;;;;;;;18.35;45.62;95411.67;108628;1279;123554;-89
2024/03/31 00:03:05;;;;;;;;;;;;;;;18.33;45.45;95406.29;108790;1272;22569;-90
2024/03/31 00:05:32;;;;;;;;;;;;;;;18.33;45.50;95404.24;108659;1279;123548;-89
2024/03/31 00:07:59;;;;;;;;;;;;;;;18.34;45.25;95404.83;108759;1279;25192;-89
2024/03/31 00:10:25;;;;;;;;;;;;;;;18.38;45.38;95404.52;108679;1279;22471;-90
2024/03/31 00:12:51;;;;;;;;;;;;;;;18.37;45.33;95400.78;108805;1278;123370;-89
2024/03/31 00:15:18;;;;;;;;;;;;;;;18.36;45.44;95402.52;108821;1276;22485;-89
2024/03/31 00:17:44;;;;;;;;;;;;;;;18.36;45.96;95393.73;108692;1278;123411;-89
2024/03/31 00:20:11;;;;;;;;;;;;;;;18.32;45.67;95390.09;108830;1278;22550;-89
2024/03/31 00:22:37;;;;;;;;;;;;;;;18.30;45.63;95385.14;108775;1278;22590;-89
2024/03/31 00:25:03;;;;;;;;;;;;;;;18.31;45.53;95382.52;108661;1278;123541;-90
2024/03/31 00:27:30;;;;;;;;;;;;;;;18.34;45.49;95388.73;108783;1279;23222;-89
2024/03/31 00:29:56;;;;;;;;;;;;;;;18.35;45.61;95385.84;108576;1279;123389;-90
2024/03/31 00:32:23;;;;;;;;;;;;;;;18.33;45.89;95378.52;108678;1273;22595;-90
2024/03/31 00:34:50;;;;;;;;;;;;;;;18.32;45.94;95379.94;108725;1279;22552;-90
2024/03/31 00:37:17;;;;;;;;;;;;;;;18.27;45.74;95374.35;108675;1279;22605;-89
2024/03/31 00:39:43;;;;;;;;;;;;;;;18.27;45.84;95377.60;108639;1279;23132;-90
2024/03/31 00:42:09;;;;;;;;;;;;;;;18.27;45.91;95375.77;108534;1281;123516;-89
2024/03/31 00:44:36;;;;;;;;;;;;;;;18.26;46.00;95373.81;108755;1279;23905;-89
2024/03/31 00:47:02;;;;;;;;;;;;;;;18.25;46.16;95375.91;108736;1279;124093;-90
2024/03/31 00:49:28;;;;;;;;;;;;;;;18.23;45.81;95367.96;108766;1274;22800;-90
2024/03/31 00:51:55;;;;;;;;;;;;;;;18.27;45.74;95372.39;108740;1278;22655;-89
2024/03/31 00:54:21;;;;;;;;;;;;;;;18.30;45.99;95369.99;108756;1273;123571;-89
2024/03/31 00:56:47;;;;;;;;;;;;;;;18.27;46.04;95366.98;108774;1278;23853;-90
2024/03/31 00:59:14;;;;;;;;;;;;;;;18.29;45.84;95360.15;108798;1275;123673;-89
2024/03/31 01:01:40;;;;;;;;;;;;;;;18.29;45.98;95357.05;108890;1278;22468;-90
2024/03/31 01:04:07;;;;;;;;;;;;;;;18.27;46.09;95355.67;108702;1278;22581;-89
2024/03/31 01:06:34;;;;;;;;;;;;;;;18.23;46.26;95356.02;108669;1278;123729;-89
2024/03/31 01:09:01;;;;;;;;;;;;;;;18.22;46.12;95354.22;108768;1279;22570;-89
2024/03/31 01:11:27;;;;;;;;;;;;;;;18.21;46.30;95352.10;108725;1270;123818;-90
2024/03/31 01:13:54;;;;;;;;;;;;;;;18.23;45.94;95346.82;108703;1279;24867;-90
2024/03/31 01:16:20;;;;;;;;;;;;;;;18.28;46.04;95345.68;108873;1278;22535;-89
2024/03/31 01:18:47;;;;;;;;;;;;;;;18.27;46.11;95340.52;108855;1274;123608;-90
2024/03/31 01:21:13;;;;;;;;;;;;;;;18.25;46.02;95334.73;108885;1279;22468;-90
2024/03/31 01:23:43;;;;;;;;;;;;;;;18.28;45.95;95339.59;108622;1273;124264;-89
2024/03/31 01:26:09;;;;;;;;;;;;;;;18.32;46.03;95334.60;108853;1279;25458;-90
2024/03/31 01:28:36;;;;;;;;;;;;;;;18.30;45.94;95334.13;108738;1272;22598;-89
2024/03/31 01:31:02;;;;;;;;;;;;;;;18.29;45.97;95331.02;108583;1279;124247;-90
2024/03/31 01:33:29;;;;;;;;;;;;;;;18.30;45.98;95325.02;108694;1273;22501;-88
2024/03/31 01:36:00;;;;;;;;;;;;;;;18.28;46.18;95324.23;108767;1269;123548;-88
2024/03/31 01:38:26;;;;;;;;;;;;;;;18.26;46.03;95315.34;108740;1273;22548;-90
2024/03/31 01:40:53;;;;;;;;;;;;;;;18.25;46.42;95313.28;108768;1279;123698;-89
2024/03/31 01:43:20;;;;;;;;;;;;;;;18.21;46.49;95319.23;108695;1273;24172;-89
2024/03/31 01:45:47;;;;;;;;;;;;;;;18.18;46.49;95315.70;108732;1279;22522;-89
2024/03/31 01:48:13;;;;;;;;;;;;;;;18.17;46.25;95316.70;108611;1279;123620;-89
2024/03/31 01:50:40;;;;;;;;;;;;;;;18.23;45.92;95318.48;108910;1278;23174;-88
2024/03/31 01:53:07;;;;;;;;;;;;;;;18.28;45.98;95319.86;108615;1279;123751;-88
2024/03/31 01:55:33;;;;;;;;;;;;;;;18.33;45.97;95315.14;108886;1279;23901;-89
2024/03/31 01:58:00;;;;;;;;;;;;;;;18.32;45.96;95314.61;108681;1279;22531;-89
2024/03/31 02:00:27;;;;;;;;;;;;;;;18.30;46.23;95317.55;108753;1279;123943;-89
2024/03/31 02:02:53;;;;;;;;;;;;;;;18.29;46.11;95313.98;108863;1273;23411;-88
2024/03/31 02:05:20;;;;;;;;;;;;;;;18.29;46.33;95312.88;108610;1279;123765;-89
2024/03/31 02:07:47;;;;;;;;;;;;;;;18.25;45.97;95307.55;108641;1273;22477;-88
2024/03/31 02:10:14;;;;;;;;;;;;;;;18.27;45.61;95312.70;108707;1272;23922;-89
2024/03/31 02:12:40;;;;;;;;;;;;;;;18.32;46.07;95312.51;108704;1279;123861;-89
2024/03/31 02:15:07;;;;;;;;;;;;;;;18.29;46.11;95312.92;108715;1273;22633;-89
2024/03/31 02:17:33;;;;;;;;;;;;;;;18.28;45.58;95316.19;108676;1272;124125;-89
2024/03/31 02:20:00;;;;;;;;;;;;;;;18.32;46.05;95316.46;108795;1279;22500;-88
2024/03/31 02:22:26;;;;;;;;;;;;;;;18.30;45.63;95310.92;108838;1279;22533;-89
2024/03/31 02:24:53;;;;;;;;;;;;;;;18.35;45.81;95316.31;108781;1278;123915;-89
2024/03/31 02:27:19;;;;;;;;;;;;;;;18.36;45.75;95314.52;108824;1278;22523;-88
2024/03/31 02:29:46;;;;;;;;;;;;;;;18.36;45.72;95312.73;108723;1278;123713;-88
2024/03/31 02:32:13;;;;;;;;;;;;;;;18.35;45.82;95308.89;108927;1278;22542;-88
2024/03/31 02:34:40;;;;;;;;;;;;;;;18.34;45.73;95322.83;108793;1278;24228;-88
2024/03/31 02:37:06;;;;;;;;;;;;;;;18.34;45.59;95314.47;108751;1278;123848;-88
2024/03/31 02:39:33;;;;;;;;;;;;;;;18.35;45.69;95320.89;108680;1278;23339;-89
2024/03/31 02:41:59;;;;;;;;;;;;;;;18.33;45.71;95322.51;108718;1278;124244;-89
2024/03/31 02:44:26;;;;;;;;;;;;;;;18.29;45.55;95322.49;108761;1273;23179;-88
2024/03/31 02:46:53;;;;;;;;;;;;;;;18.29;45.63;95322.83;108644;1273;123882;-88
2024/03/31 02:49:19;;;;;;;;;;;;;;;18.29;45.47;95314.71;108798;1274;25457;-89
2024/03/31 02:51:46;;;;;;;;;;;;;;;18.29;45.59;95320.08;108894;1274;22549;-89
2024/03/31 02:54:12;;;;;;;;;;;;;;;18.28;45.55;95311.29;108662;1278;123863;-88
2024/03/31 02:56:39;;;;;;;;;;;;;;;18.26;45.83;95311.29;108928;1278;22543;-88
2024/03/31 02:59:05;;;;;;;;;;;;;;;18.21;45.51;95306.51;108629;1278;123917;-88
2024/03/31 03:01:32;;;;;;;;;;;;;;;18.21;45.93;95299.98;108729;1273;22562;-89
2024/03/31 03:03:58;;;;;;;;;;;;;;;18.17;45.64;95295.71;108793;1273;23296;-89
2024/03/31 03:06:25;;;;;;;;;;;;;;;18.16;46.03;95290.71;108755;1278;123717;-88
2024/03/31 03:08:52;;;;;;;;;;;;;;;18.14;46.15;95293.39;108803;1261;22568;-89
2024/03/31 03:11:19;;;;;;;;;;;;;;;18.11;45.94;95292.70;108726;1278;123862;-89
2024/03/31 03:13:45;;;;;;;;;;;;;;;18.10;45.94;95298.06;108792;1278;22548;-89
2024/03/31 03:16:12;;;;;;;;;;;;;;;18.10;45.92;95295.64;108745;1278;22463;-88
2024/03/31 03:18:38;;;;;;;;;;;;;;;18.11;45.90;95295.85;108600;1278;123780;-89
2024/03/31 03:21:05;;;;;;;;;;;;;;;18.12;45.90;95299.02;108907;1273;22677;-89
2024/03/31 03:23:31;;;;;;;;;;;;;;;18.11;46.35;95301.73;108854;1276;123937;-89
2024/03/31 03:25:59;;;;;;;;;;;;;;;18.08;46.33;95297.80;108896;1278;23190;-89
2024/03/31 03:28:25;;;;;;;;;;;;;;;18.06;46.29;95296.94;108762;1273;22586;-89
2024/03/31 03:30:52;;;;;;;;;;;;;;;18.07;46.36;95296.84;108707;1270;123934;-88
2024/03/31 03:33:18;;;;;;;;;;;;;;;18.06;46.16;95298.35;108851;1273;22521;-88
2024/03/31 03:35:45;;;;;;;;;;;;;;;18.06;46.31;95295.55;108728;1270;123762;-89
2024/03/31 03:38:12;;;;;;;;;;;;;;;18.07;46.23;95297.04;108865;1274;22571;-89
2024/03/31 03:40:38;;;;;;;;;;;;;;;18.08;45.92;95294.63;108810;1278;22502;-89
2024/03/31 03:43:05;;;;;;;;;;;;;;;18.09;46.05;95293.27;108743;1272;123997;-89
2024/03/31 03:45:32;;;;;;;;;;;;;;;18.09;45.99;95295.69;108876;1274;22597;-88
2024/03/31 03:47:58;;;;;;;;;;;;;;;18.09;45.78;95293.73;108688;1278;123695;-88
2024/03/31 03:50:25;;;;;;;;;;;;;;;18.09;45.67;95293.53;108889;1272;22496;-89
2024/03/31 03:52:53;;;;;;;;;;;;;;;18.10;45.68;95295.12;108811;1275;22510;-89
2024/03/31 03:55:19;;;;;;;;;;;;;;;18.09;45.55;95295.38;108755;1272;22556;-89
2024/03/31 03:57:46;;;;;;;;;;;;;;;18.10;45.21;95295.95;108787;1273;24168;-89
2024/03/31 04:00:12;;;;;;;;;;;;;;;18.09;45.40;95295.59;108725;1276;123970;-88
2024/03/31 04:02:39;;;;;;;;;;;;;;;18.04;45.67;95295.64;108649;1278;23268;-89
2024/03/31 04:05:05;;;;;;;;;;;;;;;18.00;46.03;95292.16;108769;1272;123863;-89
2024/03/31 04:07:32;;;;;;;;;;;;;;;17.94;45.45;95286.46;108845;1278;23897;-89
2024/03/31 04:09:59;;;;;;;;;;;;;;;17.91;45.71;95288.39;108837;1278;24200;-89
2024/03/31 04:12:26;;;;;;;;;;;;;;;17.87;45.59;95281.98;108824;1278;123730;-88
2024/03/31 04:14:53;;;;;;;;;;;;;;;17.85;45.80;95286.86;108809;1278;22491;-89
2024/03/31 04:17:19;;;;;;;;;;;;;;;17.84;45.36;95289.06;108882;1278;123971;-90
2024/03/31 04:19:46;;;;;;;;;;;;;;;17.84;45.53;95291.27;108719;1279;24222;-90
2024/03/31 04:22:12;;;;;;;;;;;;;;;17.85;45.13;95285.19;108872;1278;22542;-90
2024/03/31 04:24:39;;;;;;;;;;;;;;;17.85;45.58;95281.29;108846;1278;123917;-90
2024/03/31 04:27:05;;;;;;;;;;;;;;;17.84;44.85;95277.66;108989;1278;22485;-91
2024/03/31 04:29:32;;;;;;;;;;;;;;;17.84;44.62;95275.14;108677;1277;124609;-90
2024/03/31 04:31:58;;;;;;;;;;;;;;;17.86;44.97;95284.50;108808;1279;24306;-90
2024/03/31 04:34:28;;;;;;;;;;;;;;;17.83;44.63;95292.63;108742;1269;22617;-89
2024/03/31 04:36:56;;;;;;;;;;;;;;;17.82;44.68;95292.95;108581;1279;123751;-89
2024/03/31 04:39:24;;;;;;;;;;;;;;;17.81;44.63;95298.14;108834;1279;22469;-89
2024/03/31 04:41:51;;;;;;;;;;;;;;;17.78;44.31;95297.02;108674;1265;124334;-89
2024/03/31 04:44:17;;;;;;;;;;;;;;;17.80;44.65;95292.52;108694;1279;25392;-89
2024/03/31 04:46:46;;;;;;;;;;;;;;;17.78;44.26;95303.06;108688;1279;22475;-89
2024/03/31 04:49:14;;;;;;;;;;;;;;;17.74;44.48;95310.66;108788;1276;123508;-89
2024/03/31 04:51:40;;;;;;;;;;;;;;;17.71;44.17;95306.30;108709;1279;23162;-89
2024/03/31 04:54:07;;;;;;;;;;;;;;;17.70;44.21;95308.19;108589;1279;123744;-88
2024/03/31 04:56:34;;;;;;;;;;;;;;;17.71;44.49;95308.94;108792;1272;23222;-89
2024/03/31 04:59:00;;;;;;;;;;;;;;;17.71;44.28;95315.55;108735;1272;123936;-89
2024/03/31 05:01:27;;;;;;;;;;;;;;;17.70;44.56;95320.48;108730;1278;23318;-89
2024/03/31 05:03:53;;;;;;;;;;;;;;;17.69;44.68;95324.73;108745;1278;24308;-89
2024/03/31 05:06:21;;;;;;;;;;;;;;;17.68;44.73;95319.58;108714;1278;123853;-88
2024/03/31 05:08:51;;;;;;;;;;;;;;;17.66;44.00;95315.66;108854;1278;22542;-89
2024/03/31 05:11:37;;;;;;;;;;;;;;;17.68;44.30;95323.05;108746;1278;124167;-89
2024/03/31 05:14:40;;;;;;;;;;;;;;;17.67;44.47;95319.73;108963;1278;22608;-90
2024/03/31 05:17:13;;;;;;;;;;;;;;;17.67;44.49;95319.26;108733;1278;124151;-90
2024/03/31 05:20:12;;;;;;;;;;;;;;;17.68;44.45;95318.69;108818;1278;23227;-91
2024/03/31 05:26:56;;;;;;;;;;;;;;;17.66;44.54;95314.88;107852;1287;22906;-90
2024/03/31 05:33:14;;;;;;;;;;;;;;;17.67;44.41;95314.95;107800;1279;24312;-90
2024/03/31 05:35:40;;;;;;;;;;;;;;;17.69;44.51;95306.88;107753;1284;123892;-90
2024/03/31 05:38:10;;;;;;;;;;;;;;;17.70;44.26;95300.33;108385;1284;22532;-89
2024/03/31 05:40:40;;;;;;;;;;;;;;;17.70;44.56;95300.37;108470;1277;22492;-90
2024/03/31 05:43:07;;;;;;;;;;;;;;;17.71;44.27;95293.59;108282;1284;124014;-90
2024/03/31 05:45:34;;;;;;;;;;;;;;;17.73;44.23;95293.15;108506;1282;22831;-90
2024/03/31 05:48:01;;;;;;;;;;;;;;;17.75;43.78;95292.90;108402;1284;123822;-90
2024/03/31 05:50:28;;;;;;;;;;;;;;;17.77;43.98;95287.25;108366;1284;22550;-89
2024/03/31 05:52:55;;;;;;;;;;;;;;;17.77;43.55;95289.71;108380;1284;22513;-90
2024/03/31 05:55:21;;;;;;;;;;;;;;;17.79;43.70;95282.89;108244;1285;123832;-90
2024/03/31 05:57:48;;;;;;;;;;;;;;;17.80;43.94;95279.21;108655;1279;24354;-90
2024/03/31 06:00:15;;;;;;;;;;;;;;;17.81;44.00;95274.55;108802;1272;124487;-90
2024/03/31 06:02:41;;;;;;;;;;;;;;;17.81;43.75;95275.60;108853;1279;23283;-89
2024/03/31 06:05:08;;;;;;;;;;;;;;;17.82;44.10;95269.09;108693;1276;22463;-89
2024/03/31 06:07:36;;;;;;;;;;;;;;;17.81;43.85;95269.03;108634;1279;123747;-89
2024/03/31 06:10:02;;;;;;;;;;;;;;;17.81;43.92;95271.92;108772;1279;22555;-90
2024/03/31 06:12:29;;;;;;;;;;;;;;;17.80;43.60;95264.45;108678;1265;123914;-88
2024/03/31 06:14:56;;;;;;;;;;;;;;;17.81;43.28;95274.19;108729;1279;22539;-89
2024/03/31 06:17:27;;;;;;;;;;;;;;;17.82;42.97;95268.41;108723;1274;124014;-89
2024/03/31 06:19:53;;;;;;;;;;;;;;;17.84;43.14;95264.48;108707;1275;22619;-89
2024/03/31 06:22:19;;;;;;;;;;;;;;;17.85;43.24;95264.00;108837;1279;22471;-88
2024/03/31 06:24:46;;;;;;;;;;;;;;;17.87;43.42;95259.64;108635;1279;123874;-87
2024/03/31 06:27:12;;;;;;;;;;;;;;;17.87;43.04;95255.55;108755;1279;24199;-89
2024/03/31 06:29:39;;;;;;;;;;;;;;;17.90;42.80;95250.17;108661;1273;124034;-89
2024/03/31 06:32:05;;;;;;;;;;;;;;;17.93;43.04;95253.34;108982;1279;23799;-89
2024/03/31 06:34:32;;;;;;;;;;;;;;;17.95;42.57;95250.56;108784;1270;22586;-89
2024/03/31 06:36:58;;;;;;;;;;;;;;;17.97;42.83;95247.05;108665;1279;123714;-89
2024/03/31 06:39:24;;;;;;;;;;;;;;;17.99;43.25;95244.53;108793;1275;22535;-89
2024/03/31 06:41:51;;;;;;;;;;;;;;;18.01;43.02;95236.59;108718;1276;124230;-88
2024/03/31 06:44:17;;;;;;;;;;;;;;;18.03;42.28;95237.13;108751;1279;22542;-89
2024/03/31 06:46:43;;;;;;;;;;;;;;;18.06;42.02;95240.52;108723;1276;22573;-88
2024/03/31 06:49:10;;;;;;;;;;;;;;;18.09;42.21;95237.44;108627;1273;123893;-89
2024/03/31 06:51:37;;;;;;;;;;;;;;;18.11;42.11;95234.81;108742;1272;22814;-89
2024/03/31 06:54:03;;;;;;;;;;;;;;;18.13;41.81;95235.92;108607;1274;123845;-88
2024/03/31 06:56:29;;;;;;;;;;;;;;;18.15;41.59;95232.92;108671;1273;22729;-88
2024/03/31 06:58:56;;;;;;;;;;;;;;;18.17;41.91;95234.67;108713;1279;22507;-87
2024/03/31 07:01:22;;;;;;;;;;;;;;;18.17;41.96;95236.41;108570;1278;123761;-88
2024/03/31 07:03:49;;;;;;;;;;;;;;;18.18;41.54;95233.63;108776;1273;22546;-88
2024/03/31 07:06:16;;;;;;;;;;;;;;;18.19;41.54;95220.42;108824;1260;123757;-88
2024/03/31 07:08:42;;;;;;;;;;;;;;;18.22;40.79;95228.27;108774;1278;23699;-88
2024/03/31 07:11:08;;;;;;;;;;;;;;;18.24;41.02;95216.48;108790;1278;22471;-87
2024/03/31 07:13:35;;;;;;;;;;;;;;;18.26;40.68;95205.69;108616;1278;123603;-88
2024/03/31 07:16:01;;;;;;;;;;;;;;;18.28;41.09;95220.42;108757;1279;22500;-87
2024/03/31 07:18:27;;;;;;;;;;;;;;;18.31;39.92;95217.22;108622;1272;123793;-88
2024/03/31 07:20:54;;;;;;;;;;;;;;;18.36;39.95;95213.70;108851;1265;23683;-88
2024/03/31 07:23:20;;;;;;;;;;;;;;;18.40;41.03;95219.41;108665;1279;123987;-88
2024/03/31 07:25:47;;;;;;;;;;;;;;;18.42;40.55;95216.52;108723;1268;25381;-89
2024/03/31 07:28:14;;;;;;;;;;;;;;;18.47;40.27;95224.37;108768;1279;22640;-88
2024/03/31 07:30:40;;;;;;;;;;;;;;;18.51;40.00;95225.01;108688;1278;123736;-87
2024/03/31 07:33:07;;;;;;;;;;;;;;;18.56;40.33;95211.88;108858;1278;25298;-87
2024/03/31 07:35:33;;;;;;;;;;;;;;;18.60;39.90;95220.19;108879;1278;124856;-87
2024/03/31 07:38:00;;;;;;;;;;;;;;;18.65;39.72;95219.39;108871;1279;22492;-87
2024/03/31 07:40:26;;;;;;;;;;;;;;;18.66;39.12;95212.18;108766;1279;22651;-88
2024/03/31 07:42:54;;;;;;;;;;;;;;;18.67;39.15;95219.80;108813;1273;123655;-87
2024/03/31 07:45:21;;;;;;;;;;;;;;;18.69;39.50;95224.08;108817;1276;25416;-89
2024/03/31 07:47:48;;;;;;;;;;;;;;;18.70;40.08;95211.09;108854;1278;124040;-88
2024/03/31 07:50:14;;;;;;;;;;;;;;;18.76;39.74;95215.67;108840;1275;22590;-88
2024/03/31 07:52:42;;;;;;;;;;;;;;;18.79;38.84;95211.73;108765;1272;23201;-90
2024/03/31 07:55:09;;;;;;;;;;;;;;;18.80;38.97;95206.20;108854;1260;123986;-91
2024/03/31 07:57:37;;;;;;;;;;;;;;;18.81;39.22;95214.57;108722;1275;22675;-91
2024/03/31 08:00:03;;;;;;;;;;;;;;;18.83;38.82;95204.25;108769;1278;123746;-89
2024/03/31 08:02:30;;;;;;;;;;;;;;;18.89;39.21;95208.42;108919;1260;24006;-90
2024/03/31 08:04:57;;;;;;;;;;;;;;;18.95;38.50;95205.33;108801;1278;22457;-89
2024/03/31 08:07:47;;;;;;;;;;;;;;;19.00;38.41;95211.11;108676;1260;123873;-92
2024/03/31 08:10:31;;;;;;;;;;;;;;;19.05;37.85;95206.60;108901;1278;22635;-91
2024/03/31 08:13:01;;;;;;;;;;;;;;;19.07;38.05;95217.82;108979;1278;123718;-89
2024/03/31 08:15:27;;;;;;;;;;;;;;;19.09;38.27;95207.27;109090;1275;22571;-90
2024/03/31 08:17:57;;;;;;;;;;;;;;;19.13;37.98;95201.59;108695;1273;125401;-89
2024/03/31 08:20:49;;;;;;;;;;;;;;;19.15;37.24;95193.32;108589;1278;22575;-90
2024/03/31 08:23:19;;;;;;;;;;;;;;;19.17;36.53;95190.41;108950;1270;24301;-87
2024/03/31 08:25:59;;;;;;;;;;;;;;;19.16;36.70;95186.36;108593;1278;23396;-88
2024/03/31 08:32:44;;;;;;;;;;;;;;;19.20;36.69;95197.07;108758;1285;22525;-88
2024/03/31 08:35:11;;;;;;;;;;;;;;;19.22;36.67;95190.23;108363;1278;22537;-88
2024/03/31 08:37:50;;;;;;;;;;;;;;;19.24;37.14;95180.16;108240;1285;22632;-88
2024/03/31 08:44:20;;;;;;;;;;;;;;;19.44;37.85;95180.17;108322;1279;22538;-88
2024/03/31 08:47:06;;;;;;;;;;;;;;;19.53;37.79;95179.70;108768;1272;22535;-89
2024/03/31 08:50:08;;;;;;;;;;;;;;;19.55;37.33;95180.66;108746;1282;25415;-92
2024/03/31 08:53:07;;;;;;;;;;;;;;;;;;;;;
2024/03/31 08:56:02;;;;;;;;;;;;;;;19.59;36.99;95183.77;108908;1282;23403;-92
2024/03/31 08:58:50;;;;;;;;;;;;;;;19.62;37.16;95178.38;109087;1279;22540;-89
2024/03/31 09:01:16;;;;;;;;;;;;;;;19.66;37.42;95176.04;108699;1278;124279;-87
2024/03/31 09:03:43;;;;;;;;;;;;;;;19.72;36.95;95176.26;108907;1266;25189;-89
2024/03/31 09:06:10;;;;;;;;;;;;;;;19.77;37.13;95177.34;108728;1278;124098;-87
2024/03/31 09:08:36;;;;;;;;;;;;;;;19.82;37.56;95179.47;108816;1278;22554;-89
2024/03/31 09:11:05;;;;;;;;;;;;;;;19.88;37.30;95177.95;108820;1274;23134;-90
2024/03/31 09:13:34;;;;;;;;;;;;;;;19.94;37.07;95179.02;108811;1278;123835;-90
2024/03/31 09:16:01;;;;;;;;;;;;;;;20.03;36.98;95175.98;108891;1272;25915;-89
2024/03/31 09:18:28;;;;;;;;;;;;;;;20.10;37.47;95186.08;108606;1279;123967;-87
2024/03/31 09:20:54;;;;;;;;;;;;;;;20.20;37.13;95196.23;108777;1265;23058;-87
2024/03/31 09:23:21;;;;;;;;;;;;;;;20.29;37.09;95208.46;108762;1275;25276;-90
2024/03/31 09:25:48;;;;;;;;;;;;;;;20.40;37.17;95217.65;108680;1278;123773;-86
2024/03/31 09:28:15;;;;;;;;;;;;;;;20.47;36.09;95220.85;109073;1278;25369;-89
2024/03/31 09:30:42;;;;;;;;;;;;;;;20.52;35.94;95228.49;108750;1278;123992;-90
2024/03/31 09:33:08;;;;;;;;;;;;;;;20.56;36.05;95235.86;108826;1278;25373;-91
2024/03/31 09:35:35;;;;;;;;;;;;;;;20.61;35.59;95237.88;108799;1272;22585;-89
2024/03/31 09:38:02;;;;;;;;;;;;;;;20.68;35.05;95251.58;108707;1279;124146;-89
2024/03/31 09:40:28;;;;;;;;;;;;;;;20.73;35.15;95252.81;108815;1272;22472;-89
2024/03/31 09:42:54;;;;;;;;;;;;;;;20.80;35.74;95259.48;108613;1279;123885;-90
2024/03/31 09:45:21;;;;;;;;;;;;;;;20.90;35.46;95260.00;108841;1272;22550;-91
2024/03/31 09:47:48;;;;;;;;;;;;;;;20.97;35.27;95259.69;108603;1273;124104;-91
2024/03/31 09:50:15;;;;;;;;;;;;;;;20.98;34.79;95265.38;108680;1275;22522;-90
2024/03/31 09:52:41;;;;;;;;;;;;;;;21.01;35.22;95267.44;108713;1280;24932;-89
2024/03/31 09:55:12;;;;;;;;;;;;;;;21.03;35.08;95273.45;108596;1276;123676;-89
2024/03/31 09:57:42;;;;;;;;;;;;;;;21.06;34.81;95276.28;108860;1279;22531;-90
2024/03/31 10:00:15;;;;;;;;;;;;;;;21.04;34.46;95271.54;108574;1275;124471;-89
2024/03/31 10:02:50;;;;;;;;;;;;;;;21.03;35.58;95272.55;108868;1279;25391;-90
2024/03/31 10:05:20;;;;;;;;;;;;;;;21.06;36.28;95269.05;108862;1272;22497;-91
2024/03/31 10:07:56;;;;;;;;;;;;;;;21.07;36.06;95270.55;108794;1279;124153;-91
2024/03/31 10:10:22;;;;;;;;;;;;;;;21.11;36.05;95266.14;108930;1275;22524;-91
2024/03/31 10:12:49;;;;;;;;;;;;;;;21.14;35.68;95258.14;108750;1268;123748;-90
2024/03/31 10:15:15;;;;;;;;;;;;;;;21.14;35.37;95251.06;108728;1279;22536;-91
2024/03/31 10:17:42;;;;;;;;;;;;;;;21.11;35.55;95249.92;108696;1278;123983;-89
2024/03/31 10:20:08;;;;;;;;;;;;;;;21.13;35.61;95247.37;108633;1279;196586;-90
2024/03/31 10:22:35;;;;;;;;;;;;;;;21.18;35.96;95251.74;108995;1256;22536;-89
2024/03/31 10:25:02;;;;;;;;;;;;;;;21.21;35.67;95250.60;108760;1275;124062;-91
2024/03/31 10:27:28;;;;;;;;;;;;;;;21.24;35.23;95249.38;108765;1277;25250;-91
2024/03/31 10:29:55;;;;;;;;;;;;;;;21.27;34.82;95256.02;109197;1273;123846;-90
2024/03/31 10:32:21;;;;;;;;;;;;;;;21.27;33.86;95250.84;109080;1273;22551;-92
2024/03/31 10:34:49;;;;;;;;;;;;;;;21.28;34.90;95250.04;108827;1272;23870;-92
2024/03/31 10:37:16;;;;;;;;;;;;;;;21.34;34.67;95252.13;108846;1275;123876;-91
2024/03/31 10:39:42;;;;;;;;;;;;;;;21.38;35.02;95247.45;109262;1272;22788;-92
2024/03/31 10:42:24;;;;;;;;;;;;;;;21.42;35.65;95249.92;108778;1275;124636;-91
2024/03/31 10:44:52;;;;;;;;;;;;;;;21.48;35.62;95252.42;108703;1275;22483;-90
2024/03/31 10:47:19;;;;;;;;;;;;;;;21.53;36.23;95251.32;108935;1279;22472;-92
2024/03/31 10:49:45;;;;;;;;;;;;;;;21.58;35.70;95251.54;108973;1280;123825;-92
2024/03/31 10:52:12;;;;;;;;;;;;;;;21.62;36.09;95250.49;108782;1275;23032;-88
2024/03/31 10:54:39;;;;;;;;;;;;;;;21.63;35.18;95254.39;108841;1278;123858;-90
2024/03/31 10:57:09;;;;;;;;;;;;;;;21.66;35.57;95242.55;108680;1275;22578;-90
2024/03/31 10:59:36;;;;;;;;;;;;;;;21.69;36.09;95238.82;108868;1279;22605;-91
2024/03/31 11:02:13;;;;;;;;;;;;;;;21.73;35.10;95244.52;108696;1278;124036;-91
2024/03/31 11:04:41;;;;;;;;;;;;;;;21.74;35.35;95238.07;108806;1273;22541;-91
2024/03/31 11:07:10;;;;;;;;;;;;;;;21.77;35.78;95226.60;108699;1280;123986;-89
2024/03/31 11:09:43;;;;;;;;;;;;;;;21.81;35.55;95232.67;108765;1271;22893;-91
2024/03/31 11:12:10;;;;;;;;;;;;;;;21.84;35.35;95216.81;108645;1280;124177;-92
2024/03/31 11:14:37;;;;;;;;;;;;;;;21.90;35.99;95219.13;108755;1280;22581;-91
2024/03/31 11:17:04;;;;;;;;;;;;;;;21.99;36.35;95226.18;108875;1275;22543;-92
2024/03/31 11:19:33;;;;;;;;;;;;;;;22.07;35.35;95224.48;108711;1278;123704;-92
2024/03/31 11:22:03;;;;;;;;;;;;;;;22.07;34.50;95220.20;108824;1280;22696;-89
2024/03/31 11:24:30;;;;;;;;;;;;;;;22.06;34.69;95222.27;108550;1278;123908;-91
2024/03/31 11:26:56;;;;;;;;;;;;;;;22.09;34.31;95222.27;108755;1280;22506;-90
2024/03/31 11:29:23;;;;;;;;;;;;;;;22.11;34.97;95239.39;108798;1280;22630;-89
2024/03/31 11:31:49;;;;;;;;;;;;;;;22.15;34.33;95244.29;108627;1273;123703;-90
2024/03/31 11:34:17;;;;;;;;;;;;;;;22.19;33.61;95236.58;108761;1275;25253;-87
2024/03/31 11:36:44;;;;;;;;;;;;;;;22.19;33.06;95243.65;108608;1280;123727;-87
2024/03/31 11:39:13;;;;;;;;;;;;;;;22.19;32.06;95245.73;108670;1278;22611;-87
2024/03/31 11:41:40;;;;;;;;;;;;;;;22.18;32.79;95242.94;108641;1280;122833;-87
2024/03/31 11:44:07;;;;;;;;;;;;;;;22.15;32.03;95241.75;108873;1280;22546;-88
2024/03/31 11:46:35;;;;;;;;;;;;;;;22.11;32.18;95238.66;108733;1275;24157;-87
2024/03/31 11:49:01;;;;;;;;;;;;;;;22.07;32.48;95230.66;108706;1278;123649;-89
2024/03/31 11:51:31;;;;;;;;;;;;;;;22.04;31.62;95221.90;108754;1274;23288;-89
2024/03/31 11:53:58;;;;;;;;;;;;;;;22.01;31.53;95207.85;108611;1273;123994;-88
2024/03/31 11:56:24;;;;;;;;;;;;;;;22.03;32.30;95222.70;108634;1275;22571;-87
2024/03/31 11:58:51;;;;;;;;;;;;;;;22.03;32.89;95207.09;108649;1275;22638;-88
2024/03/31 12:01:18;;;;;;;;;;;;;;;22.03;33.19;95201.33;108576;1273;123723;-88
2024/03/31 12:03:55;;;;;;;;;;;;;;;22.00;33.35;95207.13;108604;1280;25206;-88
2024/03/31 12:06:22;;;;;;;;;;;;;;;21.98;33.25;95219.31;108563;1274;123909;-88
2024/03/31 12:08:51;;;;;;;;;;;;;;;21.97;33.61;95211.13;108680;1280;22560;-87
2024/03/31 12:11:21;;;;;;;;;;;;;;;21.96;32.78;95209.74;108602;1275;23848;-88
2024/03/31 12:13:52;;;;;;;;;;;;;;;21.97;33.51;95211.08;108474;1271;123938;-88
2024/03/31 12:16:19;;;;;;;;;;;;;;;21.96;32.99;95201.19;108625;1278;23895;-90
2024/03/31 12:18:46;;;;;;;;;;;;;;;21.91;33.18;95204.52;108646;1280;123747;-89
2024/03/31 12:21:19;;;;;;;;;;;;;;;21.86;33.68;95206.59;108645;1270;22637;-89
2024/03/31 12:23:46;;;;;;;;;;;;;;;21.86;33.22;95205.48;108499;1279;123899;-90
2024/03/31 12:26:13;;;;;;;;;;;;;;;21.87;33.18;95207.06;108683;1280;25464;-89
2024/03/31 12:28:39;;;;;;;;;;;;;;;21.85;32.91;95194.17;108657;1278;22465;-89
2024/03/31 12:31:05;;;;;;;;;;;;;;;21.84;33.24;95199.80;108619;1280;123659;-89
2024/03/31 12:33:32;;;;;;;;;;;;;;;21.90;33.98;95202.32;108703;1280;22565;-90
2024/03/31 12:35:59;;;;;;;;;;;;;;;21.93;34.15;95197.46;108532;1279;124391;-90
2024/03/31 12:38:26;;;;;;;;;;;;;;;21.95;33.42;95201.83;108600;1280;22642;-90
2024/03/31 12:40:53;;;;;;;;;;;;;;;21.95;33.27;95199.55;108627;1280;25276;-88
2024/03/31 12:43:26;;;;;;;;;;;;;;;21.92;33.36;95209.27;108784;1280;123726;-88
2024/03/31 12:45:53;;;;;;;;;;;;;;;21.89;33.06;95202.59;108636;1279;22520;-88
2024/03/31 12:48:19;;;;;;;;;;;;;;;21.86;32.09;95206.80;108571;1280;123859;-89
2024/03/31 12:50:53;;;;;;;;;;;;;;;21.86;33.29;95199.56;108687;1272;22669;-91
2024/03/31 12:53:19;;;;;;;;;;;;;;;21.88;33.70;95203.06;108716;1280;22519;-89